createdAt,value
2019-04-07T00:00:58.489Z,76.27
2019-04-07T00:03:28.774Z,76.93
2019-04-07T00:05:58.554Z,76.84
2019-04-07T00:08:29.652Z,76.88
2019-04-07T00:10:59.301Z,76.76
2019-04-07T00:13:29.394Z,76.84
2019-04-07T00:15:59.078Z,76.51
2019-04-07T00:18:29.828Z,76.89
2019-04-07T00:21:00.188Z,76.71
2019-04-07T00:23:29.761Z,76.82
2019-04-07T00:25:59.312Z,77.30
2019-04-07T00:28:29.125Z,77.31
2019-04-07T00:30:58.641Z,77.57
2019-04-07T00:33:28.548Z,77.51
2019-04-07T00:35:58.184Z,77.36
2019-04-07T00:38:29.310Z,77.29
2019-04-07T00:41:00.164Z,77.35
2019-04-07T00:43:30.809Z,77.33
2019-04-07T00:46:00.319Z,77.95
2019-04-07T00:48:29.722Z,77.50
2019-04-07T00:50:59.256Z,78.19
2019-04-07T00:53:28.910Z,77.69
2019-04-07T00:55:59.387Z,77.47
2019-04-07T00:58:29.041Z,77.73
2019-04-07T01:00:58.890Z,77.99
2019-04-07T01:03:29.122Z,77.84
2019-04-07T01:05:59.822Z,77.73
2019-04-07T01:08:29.378Z,78.12
2019-04-07T01:10:58.841Z,77.80
2019-04-07T01:13:29.887Z,77.56
2019-04-07T01:16:00.184Z,78.00
2019-04-07T01:18:31.737Z,77.99
2019-04-07T01:21:01.533Z,78.01
2019-04-07T01:23:32.463Z,77.74
2019-04-07T01:26:02.009Z,77.62
2019-04-07T01:28:31.689Z,77.37
2019-04-07T01:31:01.145Z,77.54
2019-04-07T01:33:31.396Z,78.42
2019-04-07T01:36:01.102Z,77.60
2019-04-07T01:38:30.682Z,78.15
2019-04-07T01:41:02.018Z,77.84
2019-04-07T01:43:40.528Z,78.11
2019-04-07T01:46:14.348Z,77.87
2019-04-07T01:49:02.194Z,78.49
2019-04-07T01:51:39.124Z,78.55
2019-04-07T01:54:22.972Z,78.18
2019-04-07T01:57:03.461Z,78.48
2019-04-07T01:59:37.657Z,78.28
2019-04-07T02:02:14.820Z,78.65
2019-04-07T02:05:02.407Z,78.13
2019-04-07T02:07:33.789Z,77.83
2019-04-07T02:10:07.743Z,78.11
2019-04-07T02:12:55.617Z,77.99
2019-04-07T02:15:26.864Z,78.27
2019-04-07T02:17:58.183Z,77.73
2019-04-07T02:20:56.734Z,78.61
2019-04-07T02:23:44.689Z,78.74
2019-04-07T02:26:16.739Z,78.35
2019-04-07T02:28:59.984Z,78.82
2019-04-07T02:31:50.024Z,78.64
2019-04-07T02:34:24.162Z,78.49
2019-04-07T02:37:07.783Z,79.01
2019-04-07T02:39:38.904Z,78.58
2019-04-07T02:42:15.982Z,79.13
2019-04-07T02:45:03.468Z,78.01
2019-04-07T02:47:40.184Z,78.60
2019-04-07T02:50:13.046Z,79.01
2019-04-07T02:53:01.413Z,78.30
2019-04-07T02:55:35.707Z,78.82
2019-04-07T02:58:10.277Z,78.66
2019-04-07T03:00:47.548Z,79.32
2019-04-07T03:03:18.860Z,79.46
2019-04-07T03:05:50.751Z,79.25
2019-04-07T03:08:37.812Z,78.97
2019-04-07T03:11:09.634Z,79.62
2019-04-07T03:13:54.101Z,79.52
2019-04-07T03:16:31.306Z,79.01
2019-04-07T03:19:05.327Z,79.47
2019-04-07T03:21:36.728Z,79.62
2019-04-07T03:24:17.099Z,79.64
2019-04-07T03:27:00.821Z,79.35
2019-04-07T03:29:33.149Z,78.90
2019-04-07T03:32:23.344Z,78.72
2019-04-07T03:35:10.029Z,78.66
2019-04-07T03:37:57.235Z,79.44
2019-04-07T03:40:44.212Z,78.96
2019-04-07T03:43:18.241Z,78.93
2019-04-07T03:45:49.942Z,79.08
2019-04-07T03:48:28.199Z,78.99
2019-04-07T03:51:00.154Z,79.18
2019-04-07T03:53:32.384Z,79.22
2019-04-07T03:56:20.169Z,79.24
2019-04-07T03:58:52.341Z,78.86
2019-04-07T04:01:38.662Z,79.08
2019-04-07T04:04:25.785Z,78.88
2019-04-07T04:06:56.952Z,79.00
2019-04-07T04:09:41.304Z,79.57
2019-04-07T04:12:31.671Z,79.53
2019-04-07T04:15:08.781Z,79.40
2019-04-07T04:17:39.151Z,79.01
2019-04-07T04:20:08.944Z,79.01
2019-04-07T04:22:39.573Z,79.45
2019-04-07T04:25:10.538Z,79.31
2019-04-07T04:27:40.326Z,79.21
2019-04-07T04:30:10.819Z,78.45
2019-04-07T04:32:41.625Z,79.00
2019-04-07T04:35:11.237Z,78.91
2019-04-07T04:37:47.531Z,79.21
2019-04-07T04:40:12.006Z,78.61
2019-04-07T04:42:42.091Z,78.32
2019-04-07T04:45:11.784Z,78.51
2019-04-07T04:47:41.308Z,78.24
2019-04-07T04:50:11.032Z,78.02
2019-04-07T04:52:40.905Z,77.95
2019-04-07T04:55:11.327Z,77.99
2019-04-07T04:57:40.901Z,77.57
2019-04-07T05:00:10.519Z,77.46
2019-04-07T05:02:40.069Z,77.25
2019-04-07T05:05:11.248Z,77.18
2019-04-07T05:07:55.419Z,76.93
2019-04-07T05:10:12.256Z,76.78
2019-04-07T05:12:42.104Z,76.67
2019-04-07T05:15:11.983Z,76.35
2019-04-07T05:17:42.067Z,75.58
2019-04-07T05:20:12.347Z,75.53
2019-04-07T05:22:42.185Z,75.62
2019-04-07T05:25:12.061Z,76.41
2019-04-07T05:27:41.698Z,77.27
2019-04-07T05:30:11.291Z,77.38
2019-04-07T05:32:40.938Z,77.54
2019-04-07T05:35:12.008Z,77.55
2019-04-07T05:37:41.785Z,77.45
2019-04-07T05:40:12.354Z,77.54
2019-04-07T05:42:41.964Z,77.27
2019-04-07T05:45:11.554Z,77.39
2019-04-07T05:47:47.331Z,77.01
2019-04-07T05:50:13.271Z,76.90
2019-04-07T05:52:43.311Z,76.47
2019-04-07T05:55:12.996Z,76.11
2019-04-07T05:57:43.096Z,75.25
2019-04-07T06:00:15.646Z,73.12
2019-04-07T06:02:44.970Z,71.04
2019-04-07T06:05:16.281Z,69.72
2019-04-07T06:07:46.988Z,69.66
2019-04-07T06:10:16.765Z,69.97
2019-04-07T06:12:47.353Z,69.61
2019-04-07T06:15:21.014Z,69.29
2019-04-07T06:17:49.019Z,70.02
2019-04-07T06:20:18.998Z,68.58
2019-04-07T06:22:52.729Z,67.54
2019-04-07T06:25:20.953Z,67.65
2019-04-07T06:27:51.047Z,67.54
2019-04-07T06:30:22.057Z,67.39
2019-04-07T06:32:51.643Z,68.38
2019-04-07T06:35:21.172Z,68.01
2019-04-07T06:37:50.897Z,66.25
2019-04-07T06:40:21.291Z,66.30
2019-04-07T06:42:52.386Z,64.43
2019-04-07T06:45:23.651Z,56.50
2019-04-07T06:47:56.640Z,56.79
2019-04-07T06:50:31.183Z,57.39
2019-04-07T06:53:05.518Z,53.93
2019-04-07T06:55:36.727Z,51.17
2019-04-07T06:58:08.425Z,50.70
2019-04-07T07:00:58.605Z,50.33
2019-04-07T07:03:39.185Z,49.63
2019-04-07T07:06:27.520Z,48.95
2019-04-07T07:09:02.034Z,48.27
2019-04-07T07:11:52.708Z,48.34
2019-04-07T07:14:34.792Z,46.77
2019-04-07T07:17:06.486Z,46.82
2019-04-07T07:19:37.972Z,46.43
2019-04-07T07:22:18.650Z,44.77
2019-04-07T07:24:48.132Z,45.40
2019-04-07T07:27:17.842Z,46.05
2019-04-07T07:29:47.732Z,46.60
2019-04-07T07:32:18.625Z,45.56
2019-04-07T07:34:48.127Z,45.71
2019-04-07T07:37:17.545Z,45.02
2019-04-07T07:39:47.287Z,45.66
2019-04-07T07:42:19.097Z,46.05
2019-04-07T07:44:48.328Z,45.80
2019-04-07T07:47:20.740Z,46.21
2019-04-07T07:49:49.775Z,45.76
2019-04-07T07:52:21.578Z,44.47
2019-04-07T07:54:50.855Z,44.74
2019-04-07T07:57:23.727Z,46.35
2019-04-07T07:59:52.545Z,44.65
2019-04-07T08:02:22.023Z,44.61
2019-04-07T08:04:52.809Z,43.95
2019-04-07T08:07:22.582Z,43.87
2019-04-07T08:09:56.862Z,43.72
2019-04-07T08:12:28.132Z,43.53
2019-04-07T08:14:58.596Z,43.17
2019-04-07T08:17:31.627Z,43.13
2019-04-07T08:20:06.546Z,43.09
